createdAt,value
2018-02-23T00:00:07.307Z,5.97
2018-02-23T00:02:37.941Z,6.33
2018-02-23T00:05:08.156Z,5.73
2018-02-23T00:07:47.677Z,6.07
2018-02-23T00:10:17.612Z,6.23
2018-02-23T00:12:47.875Z,6.00
2018-02-23T00:15:18.085Z,6.33
2018-02-23T00:17:48.751Z,5.70
2018-02-23T00:20:18.895Z,5.93
2018-02-23T00:22:49.200Z,6.07
2018-02-23T00:25:20.214Z,6.00
2018-02-23T00:27:50.520Z,5.70
2018-02-23T00:30:20.804Z,5.67
2018-02-23T00:32:51.817Z,6.20
2018-02-23T00:35:22.530Z,5.60
2018-02-23T00:37:53.412Z,5.50
2018-02-23T00:40:24.444Z,5.53
2018-02-23T00:42:55.573Z,6.40
2018-02-23T00:45:25.882Z,6.73
2018-02-23T00:47:56.218Z,5.97
2018-02-23T00:50:26.541Z,5.60
2018-02-23T00:52:56.820Z,6.10
2018-02-23T00:55:27.212Z,12.83
2018-02-23T00:57:58.262Z,5.90
2018-02-23T01:00:28.564Z,5.80
2018-02-23T01:02:59.732Z,5.57
2018-02-23T01:05:29.800Z,5.53
2018-02-23T01:08:00.997Z,6.80
2018-02-23T01:10:32.108Z,7.03
2018-02-23T01:13:02.305Z,6.10
2018-02-23T01:15:32.591Z,5.77
2018-02-23T01:18:03.075Z,5.70
2018-02-23T01:20:34.084Z,6.13
2018-02-23T01:23:04.395Z,5.50
2018-02-23T01:25:35.391Z,5.60
2018-02-23T01:28:06.432Z,5.70
2018-02-23T01:30:37.437Z,6.30
2018-02-23T01:33:07.760Z,5.70
2018-02-23T01:35:38.774Z,5.47
2018-02-23T01:38:09.287Z,6.17
2018-02-23T01:40:40.202Z,8.07
2018-02-23T01:43:11.199Z,5.87
2018-02-23T01:45:42.238Z,6.20
2018-02-23T01:48:12.521Z,6.27
2018-02-23T01:50:48.670Z,6.67
2018-02-23T01:53:18.696Z,5.83
2018-02-23T01:55:50.166Z,7.07
2018-02-23T01:58:20.983Z,6.87
2018-02-23T02:00:51.281Z,5.60
2018-02-23T02:03:21.823Z,7.33
2018-02-23T02:05:51.976Z,6.40
2018-02-23T02:08:22.323Z,7.17
2018-02-23T02:10:52.696Z,6.37
2018-02-23T02:13:23.247Z,6.60
2018-02-23T02:15:53.395Z,8.23
2018-02-23T02:18:23.120Z,6.90
2018-02-23T02:20:53.336Z,6.57
2018-02-23T02:23:23.408Z,7.23
2018-02-23T02:25:53.890Z,8.83
2018-02-23T02:28:24.197Z,7.40
2018-02-23T02:30:54.476Z,6.83
2018-02-23T02:33:25.496Z,6.80
2018-02-23T02:35:56.508Z,7.23
2018-02-23T02:38:26.642Z,8.60
2018-02-23T02:40:56.933Z,8.60
2018-02-23T02:43:27.192Z,7.50
2018-02-23T02:45:58.237Z,7.57
2018-02-23T02:48:29.306Z,6.40
2018-02-23T02:50:59.700Z,7.50
2018-02-23T02:53:30.744Z,8.17
2018-02-23T02:56:01.712Z,6.93
2018-02-23T02:58:32.626Z,7.70
2018-02-23T03:01:03.158Z,7.30
2018-02-23T03:03:33.456Z,6.97
2018-02-23T03:06:03.728Z,6.53
2018-02-23T03:08:34.776Z,7.83
2018-02-23T03:11:05.050Z,7.77
2018-02-23T03:13:35.705Z,7.07
2018-02-23T03:16:05.840Z,7.20
2018-02-23T03:18:36.152Z,7.63
2018-02-23T03:21:06.669Z,7.80
2018-02-23T03:23:36.839Z,7.73
2018-02-23T03:26:07.116Z,7.20
2018-02-23T03:28:38.141Z,7.37
2018-02-23T03:31:09.156Z,7.53
2018-02-23T03:33:39.440Z,7.40
2018-02-23T03:36:09.947Z,7.30
2018-02-23T03:38:40.137Z,6.80
2018-02-23T03:41:10.542Z,7.07
2018-02-23T03:43:41.335Z,6.70
2018-02-23T03:46:12.375Z,7.00
2018-02-23T03:48:42.664Z,7.87
2018-02-23T03:51:13.006Z,7.57
2018-02-23T03:53:44.007Z,6.93
2018-02-23T03:56:15.041Z,7.67
2018-02-23T03:58:45.749Z,6.90
2018-02-23T04:01:16.802Z,7.70
2018-02-23T04:03:47.314Z,8.33
2018-02-23T04:06:17.722Z,7.70
2018-02-23T04:08:47.996Z,7.60
2018-02-23T04:11:19.014Z,8.17
2018-02-23T04:13:50.070Z,7.60
2018-02-23T04:16:20.112Z,7.10
2018-02-23T04:18:50.407Z,7.90
2018-02-23T04:21:20.654Z,6.80
2018-02-23T04:23:50.867Z,8.33
2018-02-23T04:26:21.140Z,7.57
2018-02-23T04:28:52.186Z,7.33
2018-02-23T04:31:23.183Z,8.03
2018-02-23T04:33:53.743Z,7.70
2018-02-23T04:36:24.863Z,7.37
2018-02-23T04:38:55.018Z,7.10
2018-02-23T04:41:25.272Z,7.77
2018-02-23T04:43:56.059Z,7.83
2018-02-23T04:46:27.150Z,8.47
2018-02-23T04:48:57.427Z,7.97
2018-02-23T04:51:27.644Z,8.60
2018-02-23T04:53:58.740Z,7.87
2018-02-23T04:56:29.736Z,7.67
2018-02-23T04:59:00.049Z,8.27
2018-02-23T05:01:31.081Z,8.53
2018-02-23T05:04:01.776Z,7.87
2018-02-23T05:06:32.187Z,7.60
2018-02-23T05:09:03.078Z,7.53
2018-02-23T05:11:34.059Z,8.70
2018-02-23T05:14:04.568Z,7.90
2018-02-23T05:16:34.839Z,9.17
2018-02-23T05:19:04.921Z,8.17
2018-02-23T05:21:35.764Z,8.57
2018-02-23T05:24:06.052Z,8.37
2018-02-23T05:26:37.091Z,8.43
2018-02-23T05:29:07.434Z,8.60
2018-02-23T05:31:38.365Z,8.63
2018-02-23T05:34:08.911Z,9.07
2018-02-23T05:36:39.421Z,7.83
2018-02-23T05:39:09.882Z,8.80
2018-02-23T05:41:40.276Z,8.27
2018-02-23T05:44:10.561Z,7.80
2018-02-23T05:46:40.876Z,8.50
2018-02-23T05:49:10.896Z,9.70
2018-02-23T05:51:41.218Z,9.17
2018-02-23T05:54:11.524Z,8.57
2018-02-23T05:56:42.055Z,8.50
2018-02-23T05:59:12.324Z,8.23
2018-02-23T06:01:42.973Z,9.00
2018-02-23T06:04:13.368Z,9.33
2018-02-23T06:06:43.564Z,8.93
2018-02-23T06:09:13.883Z,9.13
2018-02-23T06:11:44.466Z,9.27
2018-02-23T06:14:14.875Z,9.57
2018-02-23T06:16:45.303Z,9.40
2018-02-23T06:19:21.034Z,8.77
2018-02-23T06:21:51.584Z,8.50
2018-02-23T06:24:21.884Z,9.70
2018-02-23T06:26:52.331Z,12.73
2018-02-23T06:29:23.433Z,9.93
2018-02-23T06:31:53.753Z,9.20
2018-02-23T06:34:24.396Z,10.27
2018-02-23T06:36:54.670Z,10.03
2018-02-23T06:39:25.003Z,10.27
2018-02-23T06:41:56.103Z,10.27
2018-02-23T06:44:26.986Z,10.23
2018-02-23T06:47:02.448Z,9.47
2018-02-23T06:49:33.497Z,9.50
2018-02-23T06:52:03.775Z,10.93
2018-02-23T06:54:34.120Z,9.80
2018-02-23T06:57:04.405Z,9.40
2018-02-23T06:59:34.951Z,9.40
2018-02-23T07:02:05.883Z,9.97
2018-02-23T07:04:37.334Z,9.60
2018-02-23T07:07:08.391Z,10.10
2018-02-23T07:09:39.435Z,8.67
2018-02-23T07:12:09.984Z,9.67
2018-02-23T07:14:40.127Z,10.70
2018-02-23T07:17:10.424Z,10.10
2018-02-23T07:19:40.700Z,10.30
2018-02-23T07:22:11.754Z,9.80
2018-02-23T07:24:42.256Z,10.10
2018-02-23T07:27:13.197Z,10.57
2018-02-23T07:29:43.475Z,11.03
2018-02-23T07:32:14.515Z,10.37
2018-02-23T07:34:44.824Z,10.97
2018-02-23T07:37:15.093Z,9.97
2018-02-23T07:39:45.389Z,10.97
2018-02-23T07:42:17.316Z,10.77
2018-02-23T07:44:48.350Z,9.97
2018-02-23T07:47:19.388Z,10.43
2018-02-23T07:49:49.672Z,11.03
2018-02-23T07:52:19.844Z,11.00
2018-02-23T07:54:50.892Z,12.87
2018-02-23T07:57:21.425Z,10.13
2018-02-23T08:00:04.232Z,9.47
2018-02-23T08:02:34.543Z,10.80
2018-02-23T08:05:05.612Z,10.57
2018-02-23T08:10:34.473Z,10.50
2018-02-23T08:13:05.200Z,10.57
2018-02-23T08:15:38.232Z,10.73
2018-02-23T08:18:08.558Z,11.20
2018-02-23T08:20:39.099Z,11.83
2018-02-23T08:23:09.400Z,10.43
2018-02-23T08:25:39.722Z,12.13
2018-02-23T08:28:10.778Z,11.60
2018-02-23T08:30:41.145Z,10.93
2018-02-23T08:33:11.480Z,11.27
2018-02-23T08:35:42.504Z,12.40
2018-02-23T08:38:12.827Z,11.67
2018-02-23T08:40:43.107Z,11.80
2018-02-23T08:43:13.803Z,11.20
2018-02-23T08:45:45.097Z,11.83
2018-02-23T08:48:15.559Z,11.63
2018-02-23T08:50:45.912Z,10.63
2018-02-23T08:53:17.118Z,12.03
2018-02-23T08:55:47.267Z,13.27
2018-02-23T08:58:27.296Z,12.10
2018-02-23T09:01:02.280Z,12.63
2018-02-23T09:03:32.512Z,12.23
2018-02-23T09:06:02.807Z,13.40
2018-02-23T09:08:34.620Z,10.23
2018-02-23T09:11:05.584Z,11.87
2018-02-23T09:13:37.063Z,12.20
2018-02-23T09:16:08.109Z,12.60
2018-02-23T09:18:40.262Z,12.37
2018-02-23T09:21:11.564Z,11.53
2018-02-23T09:23:42.051Z,13.43
2018-02-23T09:26:13.605Z,15.35
2018-02-23T09:28:44.032Z,12.73
2018-02-23T09:31:15.053Z,13.33
2018-02-23T09:33:58.284Z,15.97
2018-02-23T09:36:29.230Z,13.87
2018-02-23T09:38:59.590Z,13.73
2018-02-23T09:41:33.754Z,13.60
2018-02-23T09:44:04.047Z,15.77
2018-02-23T09:46:34.386Z,13.80
2018-02-23T09:49:07.580Z,13.43
2018-02-23T09:51:39.543Z,13.47
2018-02-23T09:54:10.705Z,12.20
2018-02-23T09:56:44.762Z,13.43
2018-02-23T09:59:15.310Z,13.00
2018-02-23T10:01:45.603Z,14.27
2018-02-23T10:04:20.753Z,13.80
2018-02-23T10:06:53.615Z,13.17
2018-02-23T10:09:23.888Z,12.50
2018-02-23T10:11:56.102Z,13.93
2018-02-23T10:14:33.719Z,13.37
2018-02-23T10:17:04.324Z,12.13
2018-02-23T10:19:34.695Z,13.43
2018-02-23T10:22:05.139Z,13.23
2018-02-23T10:24:35.888Z,13.17
2018-02-23T10:27:06.284Z,13.67
2018-02-23T10:29:38.538Z,13.03
2018-02-23T10:32:09.223Z,12.90
2018-02-23T10:34:41.421Z,14.27
2018-02-23T10:37:11.820Z,14.23
2018-02-23T10:39:41.952Z,13.97
2018-02-23T10:42:12.061Z,14.43
2018-02-23T10:44:42.203Z,14.07
2018-02-23T10:47:12.555Z,14.13
2018-02-23T10:49:44.942Z,14.53
2018-02-23T10:52:21.882Z,13.80
2018-02-23T10:54:52.511Z,14.47
2018-02-23T10:57:22.814Z,15.40
2018-02-23T10:59:53.208Z,13.03
2018-02-23T11:02:23.433Z,14.13
2018-02-23T11:04:53.633Z,15.37
2018-02-23T11:07:28.756Z,13.60
2018-02-23T11:10:00.235Z,14.67
2018-02-23T11:12:34.213Z,14.53
2018-02-23T11:15:06.743Z,14.53
2018-02-23T11:17:36.985Z,13.97
2018-02-23T11:20:11.077Z,13.83
2018-02-23T11:22:41.179Z,14.33
2018-02-23T11:25:11.244Z,15.53
2018-02-23T11:27:45.307Z,13.67
2018-02-23T11:30:18.232Z,14.57
2018-02-23T11:32:49.321Z,14.27
2018-02-23T11:35:20.718Z,13.57
2018-02-23T11:37:51.116Z,14.03
2018-02-23T11:40:23.204Z,14.73
2018-02-23T11:42:53.491Z,14.37
2018-02-23T11:45:24.548Z,15.90
2018-02-23T11:47:55.099Z,14.90
2018-02-23T11:50:26.259Z,14.13
2018-02-23T11:52:59.455Z,15.20
2018-02-23T11:55:29.743Z,13.43
2018-02-23T11:58:06.304Z,14.67
2018-02-23T12:00:37.680Z,14.70
2018-02-23T12:03:08.017Z,13.80
2018-02-23T12:05:38.321Z,15.00
2018-02-23T12:08:08.745Z,14.27
2018-02-23T12:10:39.050Z,14.57
2018-02-23T12:13:10.110Z,16.33
2018-02-23T12:15:40.397Z,14.87
2018-02-23T12:18:10.444Z,15.30
2018-02-23T12:20:40.723Z,13.80
2018-02-23T12:23:11.246Z,15.80
2018-02-23T12:25:41.517Z,15.40
2018-02-23T12:28:11.900Z,15.40
2018-02-23T12:30:42.111Z,15.53
2018-02-23T12:33:12.404Z,16.00
2018-02-23T12:35:42.616Z,13.73
2018-02-23T12:38:12.911Z,16.33
2018-02-23T12:40:43.960Z,15.23
2018-02-23T12:43:14.292Z,15.50
2018-02-23T12:45:48.140Z,15.87
2018-02-23T12:48:18.415Z,15.53
2018-02-23T12:50:50.424Z,15.83
2018-02-23T12:53:20.712Z,15.30
2018-02-23T12:55:51.032Z,16.10
2018-02-23T12:58:21.311Z,14.67
2018-02-23T13:00:51.668Z,16.53
2018-02-23T13:03:22.014Z,18.43
2018-02-23T13:05:52.302Z,16.53
2018-02-23T13:08:22.600Z,15.23
2018-02-23T13:10:52.888Z,17.37
2018-02-23T13:13:23.225Z,17.03
2018-02-23T13:15:53.495Z,17.07
2018-02-23T13:18:24.563Z,16.57
2018-02-23T13:20:56.816Z,17.13
2018-02-23T13:23:27.891Z,15.67
2018-02-23T13:25:58.210Z,16.47
2018-02-23T13:28:39.050Z,14.50
2018-02-23T13:31:09.919Z,14.83
2018-02-23T13:33:50.440Z,15.63
2018-02-23T13:36:21.567Z,16.07
2018-02-23T13:38:52.564Z,15.73
2018-02-23T13:41:29.197Z,16.03
2018-02-23T13:44:00.284Z,15.77
2018-02-23T13:46:30.378Z,15.50
2018-02-23T13:49:01.443Z,14.63
2018-02-23T13:51:32.549Z,14.93
2018-02-23T13:54:09.127Z,14.73
2018-02-23T13:56:40.088Z,15.73
2018-02-23T13:59:10.195Z,13.53
2018-02-23T14:01:40.980Z,15.37
2018-02-23T14:04:12.712Z,15.63
2018-02-23T14:06:47.987Z,15.17
2018-02-23T14:09:18.308Z,15.60
2018-02-23T14:11:48.584Z,15.33
2018-02-23T14:14:18.908Z,15.37
2018-02-23T14:16:49.167Z,13.03
2018-02-23T14:19:20.351Z,15.53
2018-02-23T14:21:50.799Z,15.03
2018-02-23T14:24:21.417Z,14.07
2018-02-23T14:26:52.455Z,13.90
2018-02-23T14:29:24.249Z,12.82
2018-02-23T14:31:54.889Z,13.47
2018-02-23T14:34:25.211Z,12.87
2018-02-23T14:36:55.244Z,13.53
2018-02-23T14:39:25.565Z,13.80
2018-02-23T14:41:55.844Z,13.87
2018-02-23T14:44:27.086Z,13.37
2018-02-23T14:46:58.007Z,13.87
2018-02-23T14:49:27.868Z,13.50
2018-02-23T14:51:58.027Z,13.33
2018-02-23T14:54:29.057Z,12.60
2018-02-23T14:56:59.386Z,14.30
2018-02-23T14:59:29.624Z,14.43
2018-02-23T15:02:00.677Z,13.63
2018-02-23T15:04:31.119Z,13.07
2018-02-23T15:07:01.461Z,13.33
2018-02-23T15:09:31.744Z,14.57
2018-02-23T15:12:02.813Z,14.67
2018-02-23T15:14:33.106Z,14.20
2018-02-23T15:17:04.357Z,13.33
2018-02-23T15:19:34.651Z,14.23
2018-02-23T15:22:05.753Z,14.13
2018-02-23T15:24:36.809Z,15.10
2018-02-23T15:27:07.432Z,14.43
2018-02-23T15:29:37.691Z,13.37
2018-02-23T15:32:19.765Z,13.07
2018-02-23T15:34:50.044Z,14.37
2018-02-23T15:37:20.474Z,14.97
2018-02-23T15:39:51.390Z,13.43
2018-02-23T15:42:22.469Z,13.97
2018-02-23T15:44:52.784Z,15.23
2018-02-23T15:47:27.628Z,14.20
2018-02-23T15:53:01.701Z,13.40
2018-02-23T15:55:30.005Z,14.57
2018-02-23T16:00:59.700Z,15.17
2018-02-23T16:03:27.140Z,14.70
2018-02-23T16:05:55.200Z,15.40
2018-02-23T16:08:23.516Z,15.60
2018-02-23T16:10:50.920Z,15.37
2018-02-23T16:13:19.041Z,16.50
2018-02-23T16:15:46.428Z,15.73
2018-02-23T16:18:14.697Z,14.13
2018-02-23T16:20:42.160Z,15.90
2018-02-23T16:23:09.534Z,16.63
2018-02-23T16:25:37.930Z,15.30
2018-02-23T16:28:05.285Z,15.10
2018-02-23T16:30:32.665Z,14.47
2018-02-23T16:33:00.840Z,15.80
2018-02-23T16:35:28.196Z,15.43
2018-02-23T16:37:55.564Z,16.60
2018-02-23T16:40:23.863Z,16.03
2018-02-23T16:42:52.025Z,16.23
2018-02-23T16:45:19.381Z,15.77
2018-02-23T16:47:46.954Z,15.63
2018-02-23T16:50:15.212Z,16.07
2018-02-23T16:52:42.600Z,16.23
2018-02-23T16:55:10.883Z,13.70
2018-02-23T16:57:39.183Z,14.30
2018-02-23T17:00:06.664Z,16.00
2018-02-23T17:02:34.040Z,14.77
2018-02-23T17:05:01.424Z,13.30
2018-02-23T17:07:29.512Z,14.53
2018-02-23T17:09:58.156Z,15.17
2018-02-23T17:12:26.518Z,13.17
2018-02-23T17:14:53.863Z,15.17
2018-02-23T17:17:21.274Z,14.33
2018-02-23T17:19:49.553Z,16.27
2018-02-23T17:22:16.979Z,16.20
2018-02-23T17:24:45.275Z,16.40
2018-02-23T17:27:13.547Z,15.10
2018-02-23T17:29:41.673Z,14.67
2018-02-23T17:32:09.964Z,14.00
2018-02-23T17:34:37.771Z,15.27
2018-02-23T17:37:06.528Z,15.00
2018-02-23T17:39:33.978Z,15.13
2018-02-23T17:42:03.308Z,16.43
2018-02-23T17:44:31.594Z,15.83
2018-02-23T17:46:59.893Z,14.10
2018-02-23T17:49:27.280Z,14.40
2018-02-23T17:51:55.423Z,15.37
2018-02-23T17:54:22.952Z,16.93
2018-02-23T17:56:50.404Z,18.43
2018-02-23T17:59:18.571Z,17.20
2018-02-23T18:01:46.872Z,17.57
2018-02-23T18:04:14.320Z,15.77
2018-02-23T18:06:41.835Z,18.90
2018-02-23T18:09:09.201Z,16.43
2018-02-23T18:11:36.876Z,15.67
2018-02-23T18:14:05.223Z,16.23
2018-02-23T18:16:33.315Z,14.70
2018-02-23T18:19:00.781Z,16.53
2018-02-23T18:21:28.088Z,15.43
2018-02-23T18:23:55.464Z,14.87
2018-02-23T18:26:23.937Z,15.87
2018-02-23T18:28:51.415Z,15.73
2018-02-23T18:31:19.540Z,15.70
2018-02-23T18:33:46.928Z,14.10
2018-02-23T18:36:14.385Z,16.00
2018-02-23T18:38:41.761Z,16.80
2018-02-23T18:41:09.932Z,15.23
2018-02-23T18:43:38.118Z,16.70
2018-02-23T18:46:06.473Z,17.20
2018-02-23T18:48:34.664Z,16.10
2018-02-23T18:51:02.764Z,16.57
2018-02-23T18:53:30.250Z,15.93
2018-02-23T18:55:57.660Z,15.80
2018-02-23T18:58:25.747Z,16.07
2018-02-23T19:00:54.061Z,16.43
2018-02-23T19:03:21.604Z,15.80
2018-02-23T19:05:49.021Z,15.37
2018-02-23T19:08:17.111Z,16.10
2018-02-23T19:10:45.534Z,15.50
2018-02-23T19:13:12.946Z,16.97
2018-02-23T19:15:40.443Z,15.40
2018-02-23T19:18:08.792Z,15.23
2018-02-23T19:20:36.158Z,15.13
2018-02-23T19:23:03.548Z,13.77
2018-02-23T19:25:30.922Z,16.33
2018-02-23T19:27:59.021Z,15.33
2018-02-23T19:30:27.371Z,16.03
2018-02-23T19:32:55.644Z,15.17
2018-02-23T19:35:23.773Z,16.17
2018-02-23T19:37:51.129Z,15.17
2018-02-23T19:40:18.511Z,16.23
2018-02-23T19:42:45.887Z,16.60
2018-02-23T19:45:14.193Z,16.23
2018-02-23T19:47:42.488Z,15.00
2018-02-23T19:50:09.892Z,14.80
2018-02-23T19:52:38.236Z,15.90
2018-02-23T19:55:06.531Z,16.07
2018-02-23T19:57:34.693Z,16.13
2018-02-23T20:00:02.069Z,16.50
2018-02-23T20:02:30.371Z,16.90
2018-02-23T20:04:57.738Z,16.57
2018-02-23T20:07:25.857Z,14.53
2018-02-23T20:09:54.159Z,16.37
2018-02-23T20:12:21.541Z,15.40
2018-02-23T20:14:49.177Z,16.80
2018-02-23T20:17:17.313Z,15.00
2018-02-23T20:19:44.753Z,15.37
2018-02-23T20:22:13.097Z,17.50
2018-02-23T20:24:41.220Z,17.57
2018-02-23T20:27:09.576Z,17.47
2018-02-23T20:29:37.706Z,17.73
2018-02-23T20:32:06.072Z,17.80
2018-02-23T20:34:34.226Z,17.23
2018-02-23T20:37:02.558Z,18.10
2018-02-23T20:39:29.996Z,17.40
2018-02-23T20:41:58.324Z,16.43
2018-02-23T20:44:26.647Z,16.10
2018-02-23T20:46:54.028Z,16.83
2018-02-23T20:49:21.376Z,18.60
2018-02-23T20:51:48.957Z,17.53
2018-02-23T20:54:16.788Z,16.73
2018-02-23T20:56:44.133Z,16.43
2018-02-23T20:59:12.456Z,16.50
2018-02-23T21:01:39.993Z,17.73
2018-02-23T21:04:07.377Z,17.87
2018-02-23T21:06:35.537Z,17.50
2018-02-23T21:09:02.881Z,16.70
2018-02-23T21:11:30.255Z,17.87
2018-02-23T21:13:58.607Z,18.53
2018-02-23T21:16:26.798Z,17.53
2018-02-23T21:18:54.236Z,18.10
2018-02-23T21:21:22.401Z,18.57
2018-02-23T21:23:49.767Z,19.03
2018-02-23T21:26:18.037Z,17.53
2018-02-23T21:28:46.319Z,19.13
2018-02-23T21:31:13.676Z,17.83
2018-02-23T21:33:41.816Z,18.53
2018-02-23T21:36:09.917Z,18.50
2018-02-23T21:38:38.248Z,17.30
2018-02-23T21:41:06.321Z,18.03
2018-02-23T21:43:35.360Z,17.20
2018-02-23T21:46:02.656Z,17.33
2018-02-23T21:48:29.984Z,15.87
2018-02-23T21:50:58.376Z,18.83
2018-02-23T21:53:26.613Z,15.47
2018-02-23T21:55:54.088Z,16.70
2018-02-23T21:58:22.564Z,18.33
2018-02-23T22:00:50.654Z,18.27
2018-02-23T22:03:18.036Z,18.30
2018-02-23T22:05:46.209Z,17.73
2018-02-23T22:08:16.566Z,18.27
2018-02-23T22:10:43.954Z,17.80
2018-02-23T22:13:11.356Z,18.73
2018-02-23T22:15:38.728Z,19.63
2018-02-23T22:18:06.120Z,17.40
2018-02-23T22:20:35.403Z,19.53
2018-02-23T22:23:02.968Z,18.40
2018-02-23T22:25:30.324Z,19.30
2018-02-23T22:27:58.408Z,20.20
2018-02-23T22:30:25.841Z,19.53
2018-02-23T22:32:53.232Z,18.30
2018-02-23T22:35:22.500Z,17.60
2018-02-23T22:37:50.572Z,18.20
2018-02-23T22:40:18.171Z,19.03
2018-02-23T22:42:46.427Z,18.80
2018-02-23T22:45:14.712Z,18.27
2018-02-23T22:47:42.996Z,19.10
2018-02-23T22:50:10.398Z,18.30
2018-02-23T22:52:38.680Z,16.70
2018-02-23T22:55:06.059Z,18.30
2018-02-23T22:57:33.459Z,18.67
2018-02-23T23:00:01.594Z,17.13
2018-02-23T23:02:29.026Z,17.60
2018-02-23T23:04:56.381Z,18.77
2018-02-23T23:07:23.929Z,17.97
2018-02-23T23:09:52.085Z,18.43
2018-02-23T23:12:19.480Z,18.40
2018-02-23T23:14:46.816Z,18.47
2018-02-23T23:17:14.928Z,19.30
2018-02-23T23:19:42.289Z,16.70
2018-02-23T23:22:10.809Z,18.53
2018-02-23T23:24:38.189Z,17.93
2018-02-23T23:27:05.560Z,17.73
2018-02-23T23:29:33.886Z,16.90
2018-02-23T23:32:01.236Z,17.00
2018-02-23T23:34:29.401Z,17.43
2018-02-23T23:36:56.792Z,18.33
2018-02-23T23:39:30.351Z,18.13
2018-02-23T23:41:58.454Z,18.10
2018-02-23T23:44:26.811Z,16.90
2018-02-23T23:46:55.175Z,16.57
2018-02-23T23:49:23.321Z,18.50
2018-02-23T23:51:50.740Z,18.23
2018-02-23T23:54:18.082Z,17.97
2018-02-23T23:56:45.499Z,18.13
2018-02-23T23:59:13.748Z,17.97
